Time;durP1;ratioP1;P1;durP2;ratioP2;P2;SDS_P1;SDS_P2;PMS_P1;PMS_P2;Temp;Humidity;BMP_temperature;BMP_pressure;BME280_temperature;BME280_humidity;BME280_pressure;Samples;Min_cycle;Max_cycle;Signal;HPM_P1;HPM_P2
2022/09/12 00:00:43;;;;;;;1.67;0.73;;;;;;;;;;4787738;30;20053;-66
2022/09/12 00:03:09;;;;;;;3.15;0.70;;;;;;;;;;4786320;30;20035;-66
2022/09/12 00:05:40;;;;;;;3.90;0.88;;;;;;;;;;4787168;29;20076;-66
2022/09/12 00:08:07;;;;;;;3.67;1.05;;;;;;;;;;4787367;30;20043;-66
2022/09/12 00:10:36;;;;;;;4.90;1.10;;;;;;;;;;4787337;30;20486;-66
2022/09/12 00:13:02;;;;;;;1.95;0.95;;;;;;;;;;4787172;30;20539;-66
2022/09/12 00:15:29;;;;;;;5.30;1.00;;;;;;;;;;4787236;30;20031;-66
2022/09/12 00:17:55;;;;;;;2.15;0.80;;;;;;;;;;4786861;30;20110;-66
2022/09/12 00:20:21;;;;;;;2.60;0.80;;;;;;;;;;4787029;30;20031;-66
2022/09/12 00:22:47;;;;;;;3.85;0.95;;;;;;;;;;4787139;30;20094;-66
2022/09/12 00:25:14;;;;;;;2.90;0.93;;;;;;;;;;4787081;30;20031;-66
2022/09/12 00:27:40;;;;;;;3.67;1.10;;;;;;;;;;4787189;29;20031;-66
2022/09/12 00:30:07;;;;;;;4.00;0.90;;;;;;;;;;4787055;30;20035;-66
2022/09/12 00:32:33;;;;;;;4.32;1.35;;;;;;;;;;4786806;30;20616;-66
2022/09/12 00:35:01;;;;;;;3.30;0.70;;;;;;;;;;4786965;30;20050;-66
2022/09/12 00:37:27;;;;;;;1.70;0.70;;;;;;;;;;4786999;30;20485;-66
2022/09/12 00:39:54;;;;;;;5.88;1.05;;;;;;;;;;4786016;30;20167;-66
2022/09/12 00:42:20;;;;;;;2.38;0.90;;;;;;;;;;4786883;30;20031;-66
2022/09/12 00:44:48;;;;;;;2.03;0.75;;;;;;;;;;4786979;30;20046;-66
2022/09/12 00:47:20;;;;;;;1.80;0.90;;;;;;;;;;4786671;30;20028;-64
2022/09/12 00:49:59;;;;;;;2.35;0.95;;;;;;;;;;4786855;30;20478;-64
2022/09/12 00:52:26;;;;;;;3.38;1.08;;;;;;;;;;4786914;30;20371;-64
2022/09/12 00:54:59;;;;;;;2.20;0.85;;;;;;;;;;4786944;30;20031;-63
2022/09/12 00:57:27;;;;;;;1.42;0.95;;;;;;;;;;4786925;30;20031;-63
2022/09/12 00:59:56;;;;;;;2.25;1.10;;;;;;;;;;4786794;29;20094;-64
2022/09/12 01:02:22;;;;;;;2.90;1.05;;;;;;;;;;4786744;30;20020;-63
2022/09/12 01:04:50;;;;;;;1.63;0.73;;;;;;;;;;4786626;29;20043;-64
2022/09/12 01:07:16;;;;;;;2.33;1.00;;;;;;;;;;4787053;29;20043;-63
2022/09/12 01:09:44;;;;;;;4.55;1.10;;;;;;;;;;4786687;30;20490;-63
2022/09/12 01:12:11;;;;;;;2.28;0.95;;;;;;;;;;4786532;30;20048;-63
2022/09/12 01:14:58;;;;;;;2.25;0.80;;;;;;;;;;4788265;29;20058;-64
2022/09/12 01:17:31;;;;;;;5.30;1.17;;;;;;;;;;4789805;30;20035;-63
2022/09/12 01:20:14;;;;;;;2.85;0.82;;;;;;;;;;4790159;30;20051;-64
2022/09/12 01:22:59;;;;;;;2.03;1.30;;;;;;;;;;4790380;29;20027;-63
2022/09/12 01:25:38;;;;;;;2.40;1.00;;;;;;;;;;4789996;30;20515;-64
2022/09/12 01:28:10;;;;;;;2.40;0.88;;;;;;;;;;4790048;29;20043;-63
2022/09/12 01:30:50;;;;;;;1.27;0.80;;;;;;;;;;4788700;29;20038;-63
2022/09/12 01:33:35;;;;;;;3.40;1.08;;;;;;;;;;4790008;30;20040;-64
2022/09/12 01:36:19;;;;;;;2.15;0.80;;;;;;;;;;4789918;29;20035;-63
2022/09/12 01:39:11;;;;;;;2.88;1.02;;;;;;;;;;4789807;30;20047;-63
2022/09/12 01:42:04;;;;;;;3.08;1.00;;;;;;;;;;4787722;30;20043;-64
2022/09/12 01:44:33;;;;;;;1.88;1.00;;;;;;;;;;4734010;30;20039;-63
2022/09/12 01:47:04;;;;;;;0.93;0.77;;;;;;;;;;4734268;30;20515;-64
2022/09/12 01:49:36;;;;;;;3.30;1.00;;;;;;;;;;4734200;30;20045;-63
2022/09/12 01:52:03;;;;;;;6.82;1.10;;;;;;;;;;4734336;30;20039;-63
2022/09/12 01:54:37;;;;;;;2.78;0.80;;;;;;;;;;4734440;30;20037;-64
2022/09/12 01:57:08;;;;;;;2.25;1.00;;;;;;;;;;4734241;30;20024;-64
2022/09/12 01:59:37;;;;;;;3.63;1.00;;;;;;;;;;4733715;30;20045;-63
2022/09/12 02:02:08;;;;;;;3.67;1.00;;;;;;;;;;4734257;30;20079;-64
2022/09/12 02:04:55;;;;;;;4.60;1.50;;;;;;;;;;4733671;30;20074;-64
2022/09/12 02:07:26;;;;;;;1.83;1.00;;;;;;;;;;4733910;30;20043;-63
2022/09/12 02:10:21;;;;;;;2.40;0.88;;;;;;;;;;4734199;30;20025;-63
2022/09/12 02:12:57;;;;;;;2.70;1.02;;;;;;;;;;4715526;30;20077;-63
2022/09/12 02:15:27;;;;;;;2.25;1.20;;;;;;;;;;4733697;30;20059;-64
2022/09/12 02:17:56;;;;;;;2.22;0.98;;;;;;;;;;4739105;30;20477;-63
2022/09/12 02:20:25;;;;;;;3.70;1.42;;;;;;;;;;4754056;30;20036;-63
2022/09/12 02:22:52;;;;;;;2.45;1.25;;;;;;;;;;4771235;30;20435;-63
2022/09/12 02:25:19;;;;;;;3.45;1.05;;;;;;;;;;4770998;30;20482;-63
2022/09/12 02:27:59;;;;;;;3.17;0.93;;;;;;;;;;4770492;30;20035;-63
2022/09/12 02:30:26;;;;;;;3.80;1.17;;;;;;;;;;4771108;30;20028;-63
2022/09/12 02:33:00;;;;;;;2.75;0.88;;;;;;;;;;4771204;30;20031;-64
2022/09/12 02:35:47;;;;;;;3.03;1.10;;;;;;;;;;4771017;30;20046;-64
2022/09/12 02:38:24;;;;;;;4.07;1.00;;;;;;;;;;4770913;30;20459;-64
2022/09/12 02:40:51;;;;;;;1.23;1.00;;;;;;;;;;4770882;30;20020;-63
2022/09/12 02:43:17;;;;;;;2.33;1.10;;;;;;;;;;4770586;30;20379;-63
2022/09/12 02:45:44;;;;;;;1.23;0.80;;;;;;;;;;4770755;30;20032;-63
2022/09/12 02:48:18;;;;;;;2.17;1.20;;;;;;;;;;4770606;30;20431;-64
2022/09/12 02:50:45;;;;;;;4.68;1.20;;;;;;;;;;4769561;30;20036;-64
2022/09/12 02:53:11;;;;;;;1.58;1.00;;;;;;;;;;4770612;30;20036;-63
2022/09/12 02:55:39;;;;;;;2.80;0.80;;;;;;;;;;4770670;30;20031;-63
2022/09/12 02:58:07;;;;;;;3.72;1.20;;;;;;;;;;4770287;30;20043;-63
2022/09/12 03:00:37;;;;;;;2.67;1.15;;;;;;;;;;4770650;30;20024;-64
2022/09/12 03:03:21;;;;;;;1.88;1.00;;;;;;;;;;4770546;30;20036;-64
2022/09/12 03:06:09;;;;;;;2.53;1.00;;;;;;;;;;4782543;29;20405;-63
2022/09/12 03:08:35;;;;;;;4.60;1.10;;;;;;;;;;4772422;30;20041;-63
2022/09/12 03:11:20;;;;;;;1.88;1.00;;;;;;;;;;4787960;30;20027;-63
2022/09/12 03:13:47;;;;;;;1.38;1.10;;;;;;;;;;4788167;30;20043;-63
2022/09/12 03:16:32;;;;;;;3.33;0.98;;;;;;;;;;4788229;30;20486;-64
2022/09/12 03:19:18;;;;;;;1.40;1.00;;;;;;;;;;4787869;30;20043;-63
2022/09/12 03:21:52;;;;;;;1.75;1.02;;;;;;;;;;4788096;30;20084;-64
2022/09/12 03:24:18;;;;;;;1.98;1.10;;;;;;;;;;4787961;30;20031;-61
2022/09/12 03:26:50;;;;;;;1.92;1.20;;;;;;;;;;4788121;30;20036;-63
2022/09/12 03:29:17;;;;;;;4.20;1.10;;;;;;;;;;4786968;29;20108;-63
2022/09/12 03:31:51;;;;;;;3.00;1.00;;;;;;;;;;4787833;29;20027;-63
2022/09/12 03:34:18;;;;;;;3.40;1.30;;;;;;;;;;4787789;29;20031;-62
2022/09/12 03:36:44;;;;;;;3.50;0.98;;;;;;;;;;4787761;29;20501;-63
2022/09/12 03:39:11;;;;;;;2.58;1.05;;;;;;;;;;4786526;30;20057;-63
2022/09/12 03:41:37;;;;;;;3.90;1.27;;;;;;;;;;4787415;30;20431;-63
2022/09/12 03:44:03;;;;;;;2.80;1.08;;;;;;;;;;4788110;30;20027;-64
2022/09/12 03:46:30;;;;;;;2.35;1.05;;;;;;;;;;4787706;30;20042;-63
2022/09/12 03:48:56;;;;;;;1.65;1.08;;;;;;;;;;4787785;30;20034;-63
2022/09/12 03:51:22;;;;;;;1.52;1.20;;;;;;;;;;4787740;30;20416;-63
2022/09/12 03:53:48;;;;;;;1.13;1.00;;;;;;;;;;4787684;30;20028;-64
2022/09/12 03:56:15;;;;;;;1.77;1.00;;;;;;;;;;4787283;29;20038;-63
2022/09/12 03:58:41;;;;;;;4.38;1.25;;;;;;;;;;4787427;30;20043;-63
2022/09/12 04:01:12;;;;;;;2.22;1.00;;;;;;;;;;4787368;30;20035;-63
2022/09/12 04:03:38;;;;;;;;;;;;;;;;;;4787890;30;20442;-63
2022/09/12 04:06:05;;;;;;;5.65;1.13;;;;;;;;;;4787229;29;19962;-64
2022/09/12 04:08:31;;;;;;;1.48;1.10;;;;;;;;;;4787623;30;20027;-63
2022/09/12 04:11:05;;;;;;;1.70;1.23;;;;;;;;;;4787163;30;20049;-63
2022/09/12 04:13:31;;;;;;;2.17;1.25;;;;;;;;;;4787159;29;20058;-64
2022/09/12 04:15:58;;;;;;;3.25;1.10;;;;;;;;;;4787393;30;20087;-63
2022/09/12 04:18:25;;;;;;;3.03;1.20;;;;;;;;;;4787158;30;20050;-63
2022/09/12 04:20:51;;;;;;;2.97;1.23;;;;;;;;;;4787334;30;20027;-63
2022/09/12 04:23:18;;;;;;;2.78;1.23;;;;;;;;;;4787166;30;20034;-63
2022/09/12 04:25:44;;;;;;;3.55;1.50;;;;;;;;;;4787049;29;20031;-63
2022/09/12 04:28:10;;;;;;;2.30;1.20;;;;;;;;;;4786059;29;20049;-63
2022/09/12 04:30:36;;;;;;;1.85;1.27;;;;;;;;;;4787048;30;20075;-64
2022/09/12 04:33:03;;;;;;;2.58;1.25;;;;;;;;;;4787107;30;20033;-63
2022/09/12 04:35:29;;;;;;;2.92;0.98;;;;;;;;;;4786947;30;20020;-66
2022/09/12 04:37:56;;;;;;;2.47;1.17;;;;;;;;;;4786891;30;20552;-66
2022/09/12 04:40:22;;;;;;;3.97;1.08;;;;;;;;;;4786736;30;20023;-66
2022/09/12 04:42:48;;;;;;;3.08;1.38;;;;;;;;;;4787295;30;20046;-66
2022/09/12 04:45:15;;;;;;;5.97;1.48;;;;;;;;;;4787245;30;20035;-66
2022/09/12 04:47:41;;;;;;;4.82;1.20;;;;;;;;;;4786939;30;20041;-66
2022/09/12 04:50:08;;;;;;;5.85;1.20;;;;;;;;;;4788905;29;20446;-66
2022/09/12 04:52:34;;;;;;;3.38;1.20;;;;;;;;;;4790677;30;20060;-66
2022/09/12 04:55:01;;;;;;;7.38;1.30;;;;;;;;;;4790190;30;20038;-66
2022/09/12 04:57:27;;;;;;;3.65;1.10;;;;;;;;;;4790495;30;20038;-66
2022/09/12 04:59:53;;;;;;;4.10;1.25;;;;;;;;;;4790795;30;20038;-66
2022/09/12 05:02:20;;;;;;;8.55;1.27;;;;;;;;;;4790398;30;20030;-66
2022/09/12 05:04:46;;;;;;;2.97;1.27;;;;;;;;;;4790316;29;20489;-66
2022/09/12 05:07:12;;;;;;;4.03;1.00;;;;;;;;;;4790638;30;20035;-66
2022/09/12 05:09:39;;;;;;;1.50;1.02;;;;;;;;;;4789933;30;20027;-66
2022/09/12 05:12:06;;;;;;;3.92;1.38;;;;;;;;;;4790401;30;20051;-66
2022/09/12 05:14:32;;;;;;;1.30;1.20;;;;;;;;;;4790192;30;20028;-66
2022/09/12 05:17:00;;;;;;;2.10;1.13;;;;;;;;;;4790166;30;20027;-66
2022/09/12 05:19:27;;;;;;;2.97;1.23;;;;;;;;;;4790124;30;20092;-66
2022/09/12 05:21:53;;;;;;;3.25;1.40;;;;;;;;;;4789778;30;20043;-66
2022/09/12 05:24:20;;;;;;;2.60;1.55;;;;;;;;;;4790046;30;20031;-66
2022/09/12 05:26:46;;;;;;;3.75;1.13;;;;;;;;;;4790035;30;20023;-63
2022/09/12 05:29:13;;;;;;;3.78;1.20;;;;;;;;;;4790170;30;20465;-64
2022/09/12 05:31:39;;;;;;;2.42;1.30;;;;;;;;;;4789513;29;20031;-64
2022/09/12 05:34:07;;;;;;;4.18;1.30;;;;;;;;;;4790128;30;20035;-63
2022/09/12 05:36:34;;;;;;;3.75;1.50;;;;;;;;;;4788614;29;20034;-63
2022/09/12 05:39:00;;;;;;;1.98;1.23;;;;;;;;;;4789708;29;20149;-63
2022/09/12 05:41:31;;;;;;;6.53;1.60;;;;;;;;;;4789869;30;20027;-63
2022/09/12 05:43:59;;;;;;;3.83;1.25;;;;;;;;;;4789798;30;20035;-63
2022/09/12 05:46:30;;;;;;;3.13;1.25;;;;;;;;;;4789871;30;20043;-63
2022/09/12 05:48:57;;;;;;;2.92;1.30;;;;;;;;;;4789567;29;20043;-63
2022/09/12 05:51:25;;;;;;;1.80;1.48;;;;;;;;;;4789440;30;20504;-64
2022/09/12 05:53:53;;;;;;;2.45;1.38;;;;;;;;;;4789507;30;20045;-64
2022/09/12 05:56:22;;;;;;;4.10;1.30;;;;;;;;;;4789418;30;20501;-64
2022/09/12 05:58:52;;;;;;;1.67;1.15;;;;;;;;;;4789395;30;20046;-64
2022/09/12 06:01:18;;;;;;;1.90;1.30;;;;;;;;;;4788260;29;20023;-63
2022/09/12 06:03:50;;;;;;;2.90;1.10;;;;;;;;;;4789270;30;20038;-66
2022/09/12 06:06:17;;;;;;;3.00;1.10;;;;;;;;;;4788791;29;20027;-64
2022/09/12 06:08:45;;;;;;;3.42;1.30;;;;;;;;;;4788136;30;20027;-64
2022/09/12 06:11:14;;;;;;;4.82;1.15;;;;;;;;;;4788853;29;20486;-63
2022/09/12 06:13:41;;;;;;;6.82;1.60;;;;;;;;;;4787493;29;20070;-64
2022/09/12 06:16:27;;;;;;;6.22;1.50;;;;;;;;;;4789780;29;20459;-64
2022/09/12 06:18:55;;;;;;;5.43;1.58;;;;;;;;;;4787914;29;20039;-64
2022/09/12 06:21:22;;;;;;;3.78;1.30;;;;;;;;;;4788720;30;20031;-63
2022/09/12 06:23:50;;;;;;;3.28;1.10;;;;;;;;;;4788707;29;20087;-63
2022/09/12 06:26:17;;;;;;;2.90;1.52;;;;;;;;;;4788718;29;20026;-63
2022/09/12 06:28:44;;;;;;;8.32;1.35;;;;;;;;;;4788747;30;20035;-63
2022/09/12 06:31:15;;;;;;;1.48;1.10;;;;;;;;;;4785558;29;20027;-64
2022/09/12 06:33:42;;;;;;;2.50;1.13;;;;;;;;;;4794127;29;20438;-64
2022/09/12 06:36:10;;;;;;;3.25;1.13;;;;;;;;;;4789625;29;20038;-64
2022/09/12 06:38:37;;;;;;;5.25;1.42;;;;;;;;;;4786773;30;20049;-64
2022/09/12 06:41:04;;;;;;;5.90;1.27;;;;;;;;;;4787287;30;20024;-63
2022/09/12 06:43:31;;;;;;;11.30;1.88;;;;;;;;;;4788146;30;20100;-64
2022/09/12 06:45:57;;;;;;;8.02;1.58;;;;;;;;;;4787933;30;20490;-64
2022/09/12 06:48:24;;;;;;;3.63;1.55;;;;;;;;;;4787667;30;20027;-63
2022/09/12 06:51:00;;;;;;;4.40;1.40;;;;;;;;;;4790024;29;20489;-63
2022/09/12 06:53:27;;;;;;;5.05;1.55;;;;;;;;;;4786935;30;20490;-62
2022/09/12 06:55:54;;;;;;;3.65;1.40;;;;;;;;;;4787815;30;20038;-64
2022/09/12 06:58:21;;;;;;;3.25;1.70;;;;;;;;;;4789898;29;20562;-63
2022/09/12 07:00:47;;;;;;;11.50;1.77;;;;;;;;;;4786548;30;20030;-64
2022/09/12 07:03:13;;;;;;;5.90;1.35;;;;;;;;;;4771303;30;20039;-64
2022/09/12 07:05:40;;;;;;;11.13;1.40;;;;;;;;;;4787163;29;20477;-63
2022/09/12 07:08:06;;;;;;;1.52;1.05;;;;;;;;;;4792450;29;20039;-64
2022/09/12 07:10:32;;;;;;;6.40;1.35;;;;;;;;;;4805646;29;20450;-63
2022/09/12 07:12:59;;;;;;;3.38;1.35;;;;;;;;;;4804801;29;20054;-63
2022/09/12 07:15:26;;;;;;;2.55;1.17;;;;;;;;;;4801878;29;20083;-64
2022/09/12 07:17:53;;;;;;;3.92;1.40;;;;;;;;;;4788966;29;20030;-64
2022/09/12 07:20:19;;;;;;;3.55;1.42;;;;;;;;;;4788373;29;20023;-65
2022/09/12 07:22:45;;;;;;;2.67;1.25;;;;;;;;;;4798645;29;21492;-64
2022/09/12 07:25:12;;;;;;;1.85;1.10;;;;;;;;;;4780005;29;20032;-65
2022/09/12 07:27:38;;;;;;;2.22;1.00;;;;;;;;;;4780613;29;20045;-65
2022/09/12 07:30:06;;;;;;;1.70;1.10;;;;;;;;;;4785811;30;20026;-65
2022/09/12 07:32:33;;;;;;;4.60;1.17;;;;;;;;;;4782908;30;20470;-65
2022/09/12 07:34:59;;;;;;;5.53;1.92;;;;;;;;;;4783425;29;20039;-63
2022/09/12 07:37:28;;;;;;;8.07;1.42;;;;;;;;;;4785897;29;20553;-64
2022/09/12 07:39:54;;;;;;;3.03;1.40;;;;;;;;;;4785260;29;20035;-64
2022/09/12 07:42:21;;;;;;;2.42;1.30;;;;;;;;;;4785067;30;20035;-64
2022/09/12 07:44:47;;;;;;;2.33;1.35;;;;;;;;;;4785598;30;20037;-64
2022/09/12 07:47:14;;;;;;;5.55;1.40;;;;;;;;;;4786695;29;20026;-65
2022/09/12 07:49:40;;;;;;;2.47;1.50;;;;;;;;;;4784085;29;20043;-63
2022/09/12 07:52:06;;;;;;;1.50;1.40;;;;;;;;;;4785499;29;20039;-65
2022/09/12 07:54:32;;;;;;;3.05;1.40;;;;;;;;;;4785117;29;20035;-65
2022/09/12 07:56:59;;;;;;;3.97;1.40;;;;;;;;;;4785250;30;20031;-71
2022/09/12 07:59:26;;;;;;;3.88;1.30;;;;;;;;;;4787743;29;20083;-69
2022/09/12 08:01:53;;;;;;;3.08;1.23;;;;;;;;;;4785030;29;20033;-70
2022/09/12 08:04:20;;;;;;;7.13;1.40;;;;;;;;;;4784645;30;20035;-71
2022/09/12 08:06:46;;;;;;;2.40;1.10;;;;;;;;;;4781855;30;20045;-70
2022/09/12 08:09:14;;;;;;;1.90;1.20;;;;;;;;;;4785604;30;20033;-69
2022/09/12 08:11:40;;;;;;;4.00;2.10;;;;;;;;;;4791360;29;20043;-68
2022/09/12 08:14:06;;;;;;;7.82;1.35;;;;;;;;;;4789194;29;20892;-69
2022/09/12 08:16:34;;;;;;;3.03;1.23;;;;;;;;;;4792053;29;20029;-71
2022/09/12 08:19:01;;;;;;;1.83;1.10;;;;;;;;;;4803444;29;20099;-70
2022/09/12 08:21:30;;;;;;;3.78;0.82;;;;;;;;;;4803883;29;20031;-69
2022/09/12 08:24:00;;;;;;;5.22;1.13;;;;;;;;;;4791243;29;20027;-69
2022/09/12 08:26:26;;;;;;;;;;;;;;;;;;4801308;29;20027;-71
2022/09/12 08:28:53;;;;;;;2.88;1.00;;;;;;;;;;4804210;29;19920;-68
2022/09/12 08:31:20;;;;;;;3.30;1.10;;;;;;;;;;4803558;29;20420;-71
2022/09/12 08:33:47;;;;;;;1.67;0.98;;;;;;;;;;4803949;29;20039;-71
2022/09/12 08:36:15;;;;;;;3.70;0.95;;;;;;;;;;4803965;29;20041;-72
2022/09/12 08:38:42;;;;;;;2.60;1.15;;;;;;;;;;4803890;29;20049;-70
2022/09/12 08:41:18;;;;;;;1.10;0.88;;;;;;;;;;4802829;29;20027;-71
2022/09/12 08:43:44;;;;;;;4.25;1.00;;;;;;;;;;4803349;29;20170;-71
2022/09/12 08:46:16;;;;;;;1.88;0.82;;;;;;;;;;4800986;29;20515;-70
2022/09/12 08:48:45;;;;;;;3.33;1.15;;;;;;;;;;4784636;29;20039;-70
2022/09/12 08:51:14;;;;;;;3.15;1.13;;;;;;;;;;4786250;30;20030;-70
2022/09/12 08:53:41;;;;;;;1.27;0.88;;;;;;;;;;4785616;29;20043;-71
2022/09/12 08:56:10;;;;;;;4.82;1.00;;;;;;;;;;4785764;29;20485;-71
2022/09/12 08:58:41;;;;;;;4.47;1.02;;;;;;;;;;4795926;29;20656;-72
2022/09/12 09:01:07;;;;;;;2.72;1.30;;;;;;;;;;4784424;29;20035;-72
2022/09/12 09:03:37;;;;;;;2.90;1.17;;;;;;;;;;4785085;30;20117;-70
2022/09/12 09:06:17;;;;;;;2.35;1.10;;;;;;;;;;4784740;29;20031;-69
2022/09/12 09:08:58;;;;;;;0.90;0.80;;;;;;;;;;4785356;29;20043;-72
2022/09/12 09:11:31;;;;;;;1.65;0.90;;;;;;;;;;4783897;29;20437;-70
2022/09/12 09:16:55;;;;;;;3.97;1.25;;;;;;;;;;4779446;30;20039;-71
2022/09/12 09:19:31;;;;;;;1.52;0.90;;;;;;;;;;4784162;30;20515;-74
2022/09/12 09:22:05;;;;;;;2.63;1.00;;;;;;;;;;4783276;29;20034;-69
2022/09/12 09:24:44;;;;;;;2.40;0.80;;;;;;;;;;4766441;30;20032;-70
2022/09/12 09:27:22;;;;;;;3.42;0.90;;;;;;;;;;4766770;30;20034;-69
2022/09/12 09:29:52;;;;;;;7.07;1.20;;;;;;;;;;4766066;30;20039;-68
2022/09/12 09:32:22;;;;;;;3.22;1.13;;;;;;;;;;4774376;30;20027;-69
2022/09/12 09:34:49;;;;;;;1.08;0.80;;;;;;;;;;4784123;29;20023;-69
2022/09/12 09:37:19;;;;;;;1.80;1.05;;;;;;;;;;4787662;30;20039;-68
2022/09/12 09:40:05;;;;;;;1.08;0.98;;;;;;;;;;4787881;29;20045;-69
2022/09/12 09:42:44;;;;;;;2.42;1.02;;;;;;;;;;4799701;29;20031;-69
2022/09/12 09:45:20;;;;;;;3.30;1.00;;;;;;;;;;4788887;29;20408;-69
2022/09/12 09:48:03;;;;;;;4.43;1.08;;;;;;;;;;4788553;29;20513;-69
2022/09/12 09:50:29;;;;;;;3.88;1.00;;;;;;;;;;4789716;29;20079;-69
2022/09/12 09:52:57;;;;;;;1.50;0.93;;;;;;;;;;4787478;29;20045;-70
2022/09/12 09:55:27;;;;;;;2.42;0.80;;;;;;;;;;4787626;29;20038;-70
2022/09/12 09:57:53;;;;;;;3.83;1.27;;;;;;;;;;4787117;30;20035;-69
2022/09/12 10:00:25;;;;;;;4.80;0.85;;;;;;;;;;4787501;30;20280;-69
2022/09/12 10:03:01;;;;;;;1.23;1.02;;;;;;;;;;4786308;29;20394;-68
2022/09/12 10:05:28;;;;;;;3.35;1.10;;;;;;;;;;4777358;29;20046;-70
2022/09/12 10:07:55;;;;;;;2.15;1.15;;;;;;;;;;4770610;30;20036;-68
2022/09/12 10:10:24;;;;;;;2.15;1.25;;;;;;;;;;4786507;29;20042;-69
2022/09/12 10:12:51;;;;;;;2.85;1.00;;;;;;;;;;4786777;29;20062;-70
2022/09/12 10:15:19;;;;;;;5.97;1.13;;;;;;;;;;4787295;30;20041;-68
2022/09/12 10:17:47;;;;;;;2.20;1.05;;;;;;;;;;4787544;29;20035;-69
2022/09/12 10:20:32;;;;;;;4.85;1.38;;;;;;;;;;4787318;30;20038;-69
2022/09/12 10:22:59;;;;;;;2.10;1.20;;;;;;;;;;4787228;30;20031;-69
2022/09/12 10:25:26;;;;;;;4.80;1.42;;;;;;;;;;4787199;30;20032;-68
2022/09/12 10:27:56;;;;;;;2.80;1.20;;;;;;;;;;4787245;29;20063;-68
2022/09/12 10:30:26;;;;;;;2.25;1.20;;;;;;;;;;4787034;30;20045;-68
2022/09/12 10:32:56;;;;;;;2.10;1.50;;;;;;;;;;4796249;29;20038;-67
2022/09/12 10:35:23;;;;;;;4.50;1.20;;;;;;;;;;4804535;29;20610;-68
2022/09/12 10:37:52;;;;;;;5.20;1.48;;;;;;;;;;4804450;29;20026;-68
2022/09/12 10:40:52;;;;;;;4.25;1.30;;;;;;;;;;4804956;29;20039;-67
2022/09/12 10:43:30;;;;;;;2.22;1.38;;;;;;;;;;4820828;29;20046;-67
2022/09/12 10:45:57;;;;;;;2.15;1.42;;;;;;;;;;4820922;29;20109;-67
2022/09/12 10:48:27;;;;;;;5.07;1.63;;;;;;;;;;4820096;29;20026;-66
2022/09/12 10:50:54;;;;;;;;;;;;;;;;;;4820769;29;20060;-67
2022/09/12 10:53:28;;;;;;;3.55;1.30;;;;;;;;;;4820820;29;20009;-67
2022/09/12 10:55:56;;;;;;;2.20;1.15;;;;;;;;;;4820529;29;20030;-67
2022/09/12 10:58:23;;;;;;;3.40;1.10;;;;;;;;;;4821119;29;20037;-67
2022/09/12 11:00:54;;;;;;;2.53;1.40;;;;;;;;;;4821807;29;20042;-67
2022/09/12 11:03:30;;;;;;;2.97;1.27;;;;;;;;;;4821620;29;20472;-66
2022/09/12 11:05:59;;;;;;;2.45;1.17;;;;;;;;;;4795404;29;20097;-67
2022/09/12 11:08:25;;;;;;;2.30;1.73;;;;;;;;;;4785439;30;20513;-67
2022/09/12 11:10:53;;;;;;;4.13;1.40;;;;;;;;;;4793527;29;20030;-67
2022/09/12 11:13:28;;;;;;;3.80;1.40;;;;;;;;;;4821594;29;20465;-65
2022/09/12 11:16:09;;;;;;;2.75;1.30;;;;;;;;;;4821625;29;20038;-66
2022/09/12 11:19:05;;;;;;;4.00;1.38;;;;;;;;;;4815561;29;20115;-66
2022/09/12 11:21:40;;;;;;;1.55;1.42;;;;;;;;;;4807841;29;20035;-66
2022/09/12 11:24:25;;;;;;;3.10;1.20;;;;;;;;;;4805585;29;20035;-66
2022/09/12 11:26:51;;;;;;;7.82;1.23;;;;;;;;;;4805008;29;20026;-67
2022/09/12 11:29:21;;;;;;;2.97;1.30;;;;;;;;;;4805426;29;20041;-66
2022/09/12 11:32:14;;;;;;;5.65;1.33;;;;;;;;;;4804797;29;20049;-66
2022/09/12 11:34:59;;;;;;;3.33;1.50;;;;;;;;;;4800624;29;20035;-66
2022/09/12 11:37:26;;;;;;;3.08;1.20;;;;;;;;;;4797460;29;20037;-66
2022/09/12 11:39:54;;;;;;;1.67;1.58;;;;;;;;;;4802463;29;20058;-67
2022/09/12 11:42:26;;;;;;;2.50;1.30;;;;;;;;;;4801928;29;20191;-66
2022/09/12 11:45:00;;;;;;;4.15;1.40;;;;;;;;;;4801913;29;20094;-66
2022/09/12 11:47:28;;;;;;;4.38;1.30;;;;;;;;;;4801337;29;20147;-67
2022/09/12 11:49:55;;;;;;;5.68;1.30;;;;;;;;;;4793260;29;20628;-66
2022/09/12 11:52:25;;;;;;;4.07;1.60;;;;;;;;;;4794133;29;20054;-67
2022/09/12 11:55:02;;;;;;;2.87;1.50;;;;;;;;;;4790682;29;20038;-66
2022/09/12 11:57:47;;;;;;;2.80;1.23;;;;;;;;;;4783705;29;20281;-67
2022/09/12 12:00:18;;;;;;;4.88;1.20;;;;;;;;;;4796912;29;20051;-67
2022/09/12 12:02:47;;;;;;;6.93;1.30;;;;;;;;;;4806549;29;20042;-67
2022/09/12 12:05:20;;;;;;;1.50;1.23;;;;;;;;;;4796121;29;20057;-66
2022/09/12 12:07:53;;;;;;;2.53;1.30;;;;;;;;;;4794615;29;20127;-66
2022/09/12 12:10:32;;;;;;;2.97;1.38;;;;;;;;;;4800994;29;20041;-67
2022/09/12 12:13:00;;;;;;;4.63;1.08;;;;;;;;;;4785604;30;20059;-67
2022/09/12 12:15:27;;;;;;;1.92;1.38;;;;;;;;;;4785423;30;20039;-67
2022/09/12 12:18:06;;;;;;;2.75;1.45;;;;;;;;;;4785290;29;20039;-67
2022/09/12 12:20:33;;;;;;;3.25;1.40;;;;;;;;;;4786478;30;20046;-67
2022/09/12 12:23:00;;;;;;;4.20;1.45;;;;;;;;;;4784783;29;20031;-68
2022/09/12 12:25:50;;;;;;;2.83;1.40;;;;;;;;;;4778343;29;20040;-67
2022/09/12 12:28:36;;;;;;;3.67;1.40;;;;;;;;;;4780474;29;20055;-67
2022/09/12 12:31:04;;;;;;;2.25;1.50;;;;;;;;;;4785590;29;20510;-67
2022/09/12 12:33:30;;;;;;;2.97;1.42;;;;;;;;;;4793616;29;20071;-67
2022/09/12 12:35:59;;;;;;;2.13;1.25;;;;;;;;;;4781104;29;20023;-67
2022/09/12 12:38:28;;;;;;;5.43;1.42;;;;;;;;;;4789108;29;20040;-65
2022/09/12 12:41:14;;;;;;;4.63;1.38;;;;;;;;;;4785052;29;20520;-67
2022/09/12 12:43:41;;;;;;;3.63;1.40;;;;;;;;;;4784436;30;20042;-67
2022/09/12 12:46:09;;;;;;;1.90;1.50;;;;;;;;;;4783965;30;20023;-68
2022/09/12 12:48:43;;;;;;;1.63;1.38;;;;;;;;;;4784129;29;20047;-69
2022/09/12 12:51:28;;;;;;;1.73;1.50;;;;;;;;;;4786622;29;20031;-68
2022/09/12 12:53:55;;;;;;;2.33;1.58;;;;;;;;;;4803133;29;20087;-68
2022/09/12 12:56:38;;;;;;;3.28;1.52;;;;;;;;;;4802752;29;20568;-68
2022/09/12 12:59:13;;;;;;;1.85;1.40;;;;;;;;;;4766733;30;20046;-68
2022/09/12 13:01:44;;;;;;;2.15;1.80;;;;;;;;;;4767247;30;20034;-68
2022/09/12 13:04:16;;;;;;;1.55;1.30;;;;;;;;;;4767054;29;20036;-68
2022/09/12 13:06:43;;;;;;;5.38;1.50;;;;;;;;;;4784728;30;20028;-68
2022/09/12 13:09:22;;;;;;;5.15;1.45;;;;;;;;;;4784806;29;20525;-69
2022/09/12 13:11:55;;;;;;;1.60;1.40;;;;;;;;;;4788117;30;20046;-68
2022/09/12 13:14:34;;;;;;;2.78;1.40;;;;;;;;;;4788342;29;20044;-69
2022/09/12 13:17:01;;;;;;;1.75;1.38;;;;;;;;;;4787499;30;20038;-68
2022/09/12 13:19:29;;;;;;;3.10;1.60;;;;;;;;;;4788326;29;20753;-68
2022/09/12 13:21:56;;;;;;;3.20;1.60;;;;;;;;;;4788392;29;20023;-68
2022/09/12 13:24:23;;;;;;;2.40;1.40;;;;;;;;;;4787688;30;20039;-68
2022/09/12 13:26:49;;;;;;;2.58;1.60;;;;;;;;;;4786603;29;20491;-68
2022/09/12 13:29:20;;;;;;;4.03;1.50;;;;;;;;;;4787985;30;20039;-68
2022/09/12 13:31:50;;;;;;;3.40;1.40;;;;;;;;;;4788040;29;20505;-68
2022/09/12 13:34:19;;;;;;;4.40;1.45;;;;;;;;;;4788128;29;20792;-68
2022/09/12 13:37:04;;;;;;;2.80;1.50;;;;;;;;;;4794359;29;20027;-68
2022/09/12 13:39:48;;;;;;;2.63;1.38;;;;;;;;;;4786604;29;20047;-68
2022/09/12 13:42:32;;;;;;;3.75;1.70;;;;;;;;;;4787713;30;20031;-68
2022/09/12 13:45:01;;;;;;;3.22;1.50;;;;;;;;;;4787352;30;20031;-68
2022/09/12 13:47:39;;;;;;;1.60;1.30;;;;;;;;;;4794999;29;20034;-68
2022/09/12 13:50:07;;;;;;;3.42;1.60;;;;;;;;;;4788685;29;20031;-67
2022/09/12 13:52:36;;;;;;;1.63;1.42;;;;;;;;;;4786780;30;20389;-66
2022/09/12 13:55:06;;;;;;;7.70;1.70;;;;;;;;;;4783887;30;20034;-68
2022/09/12 13:57:36;;;;;;;4.57;1.75;;;;;;;;;;4787835;30;20468;-68
2022/09/12 14:00:07;;;;;;;2.72;1.70;;;;;;;;;;4786139;30;20435;-68
2022/09/12 14:02:35;;;;;;;3.55;1.42;;;;;;;;;;4785770;29;20056;-67
2022/09/12 14:05:10;;;;;;;2.65;1.55;;;;;;;;;;4781637;30;20460;-67
2022/09/12 14:07:55;;;;;;;2.75;1.60;;;;;;;;;;4789311;29;20039;-68
2022/09/12 14:10:25;;;;;;;4.50;1.38;;;;;;;;;;4785559;30;20027;-69
2022/09/12 14:12:52;;;;;;;6.07;1.60;;;;;;;;;;4784660;30;20047;-67
2022/09/12 14:15:24;;;;;;;3.95;1.60;;;;;;;;;;4784682;30;20416;-67
2022/09/12 14:17:53;;;;;;;2.50;1.50;;;;;;;;;;4785620;30;20027;-68
2022/09/12 14:20:22;;;;;;;4.77;1.80;;;;;;;;;;4786928;30;20577;-68
2022/09/12 14:22:51;;;;;;;3.53;1.70;;;;;;;;;;4786241;29;20036;-68
2022/09/12 14:25:19;;;;;;;5.53;2.15;;;;;;;;;;4805339;29;20446;-68
2022/09/12 14:27:53;;;;;;;3.75;1.70;;;;;;;;;;4797669;29;20031;-68
2022/09/12 14:30:29;;;;;;;3.50;1.50;;;;;;;;;;4787594;29;20023;-68
2022/09/12 14:33:15;;;;;;;4.22;1.65;;;;;;;;;;4784341;30;20031;-68
2022/09/12 14:35:43;;;;;;;2.97;1.50;;;;;;;;;;4787003;30;20031;-68
2022/09/12 14:38:15;;;;;;;9.55;1.67;;;;;;;;;;4786850;29;20031;-69
2022/09/12 14:40:49;;;;;;;2.90;1.70;;;;;;;;;;4785844;30;20521;-68
2022/09/12 14:43:21;;;;;;;4.15;1.73;;;;;;;;;;4785946;30;20045;-68
2022/09/12 14:46:13;;;;;;;3.38;1.40;;;;;;;;;;4785249;29;20031;-68
2022/09/12 14:48:43;;;;;;;2.85;1.50;;;;;;;;;;4768908;30;20059;-68
2022/09/12 14:51:18;;;;;;;5.68;1.50;;;;;;;;;;4784511;30;20059;-68
2022/09/12 14:53:48;;;;;;;5.68;1.42;;;;;;;;;;4784473;30;20047;-67
2022/09/12 14:56:14;;;;;;;3.60;1.85;;;;;;;;;;4773357;30;20040;-68
2022/09/12 14:58:41;;;;;;;4.20;1.77;;;;;;;;;;4780828;30;20047;-68
2022/09/12 15:01:07;;;;;;;4.13;1.85;;;;;;;;;;4784493;30;20034;-68
2022/09/12 15:03:43;;;;;;;3.85;1.30;;;;;;;;;;4785140;30;20068;-67
2022/09/12 15:06:38;;;;;;;2.25;1.30;;;;;;;;;;4794999;29;20446;-68